Time;durP1;ratioP1;P1;durP2;ratioP2;P2;SDS_P1;SDS_P2;PMS_P1;PMS_P2;Temp;Humidity;BMP_temperature;BMP_pressure;BME280_temperature;BME280_humidity;BME280_pressure;Samples;Min_cycle;Max_cycle;Signal;HPM_P1;HPM_P2
2023/05/14 00:01:50;;;;;;;2.90;1.62;;;15.90;62.70;;;;;;2372290;53;21396;-75
2023/05/14 00:04:31;;;;;;;3.53;1.40;;;15.90;62.70;;;;;;2604012;52;21004;-76
2023/05/14 00:06:57;;;;;;;2.22;1.23;;;16.00;62.70;;;;;;2344944;53;21042;-74
2023/05/14 00:09:39;;;;;;;2.30;1.20;;;15.90;62.60;;;;;;2626187;52;21018;-75
2023/05/14 00:12:05;;;;;;;2.62;1.20;;;15.90;62.40;;;;;;2360801;54;21411;-76
2023/05/14 00:14:41;;;;;;;2.35;1.27;;;15.90;62.60;;;;;;2613096;52;21002;-78
2023/05/14 00:17:11;;;;;;;2.47;1.10;;;15.90;62.60;;;;;;2369134;53;22062;-75
2023/05/14 00:19:40;;;;;;;2.20;1.20;;;15.90;62.60;;;;;;2622393;52;21415;-75
2023/05/14 00:22:07;;;;;;;2.28;1.10;;;15.90;62.60;;;;;;2369291;53;20914;-75
2023/05/14 00:24:34;;;;;;;2.75;1.30;;;15.90;62.70;;;;;;2618689;52;21891;-76
2023/05/14 00:27:04;;;;;;;2.65;1.42;;;15.90;62.70;;;;;;2621315;52;21010;-76
2023/05/14 00:29:38;;;;;;;2.30;1.10;;;15.90;62.70;;;;;;2619696;52;21005;-76
2023/05/14 00:32:05;;;;;;;2.95;1.50;;;15.90;62.80;;;;;;2614113;52;20962;-78
2023/05/14 00:34:32;;;;;;;3.10;1.40;;;15.90;62.80;;;;;;2365213;53;20992;-76
2023/05/14 00:37:01;;;;;;;2.20;1.10;;;15.90;62.80;;;;;;2620772;52;21430;-76
2023/05/14 00:39:47;;;;;;;2.90;1.33;;;15.90;62.80;;;;;;2368354;53;20984;-78
2023/05/14 00:42:14;;;;;;;1.98;1.00;;;15.90;62.90;;;;;;2600703;52;20950;-77
2023/05/14 00:44:43;;;;;;;2.85;1.20;;;15.90;62.80;;;;;;2365087;53;21363;-78
2023/05/14 00:47:16;;;;;;;2.50;1.20;;;15.90;62.80;;;;;;2603317;52;20957;-77
2023/05/14 00:49:44;;;;;;;1.95;1.00;;;15.90;62.70;;;;;;2611605;52;20950;-77
2023/05/14 00:52:18;;;;;;;2.55;1.30;;;15.90;62.60;;;;;;2621373;52;21632;-76
2023/05/14 00:54:48;;;;;;;2.97;1.40;;;15.80;62.50;;;;;;2622009;52;21751;-78
2023/05/14 00:57:18;;;;;;;3.25;1.65;;;15.90;62.70;;;;;;2368202;53;20985;-78
2023/05/14 01:00:02;;;;;;;3.42;1.37;;;15.90;62.70;;;;;;2617096;52;21427;-79
2023/05/14 01:02:49;;;;;;;2.47;1.40;;;15.90;62.70;;;;;;2611234;52;20902;-77
2023/05/14 01:05:28;;;;;;;2.55;1.33;;;15.90;62.80;;;;;;2612281;52;21052;-76
2023/05/14 01:09:37;;;;;;;2.40;1.30;;;15.80;62.60;;;;;;2366437;53;21037;-76
2023/05/14 01:13:28;;;;;;;2.45;1.33;;;15.80;62.00;;;;;;2621535;52;21042;-79
2023/05/14 01:16:18;;;;;;;2.40;1.40;;;15.80;62.20;;;;;;2603552;52;22067;-79
2023/05/14 01:18:46;;;;;;;2.53;1.30;;;15.80;62.50;;;;;;2621707;52;20950;-77
2023/05/14 01:21:45;;;;;;;2.80;1.20;;;15.70;62.50;;;;;;2367755;53;20929;-78
2023/05/14 01:24:11;;;;;;;2.05;0.95;;;15.80;62.10;;;;;;2368668;53;21705;-77
2023/05/14 01:27:52;;;;;;;3.05;1.60;;;15.70;62.60;;;;;;2353702;53;20970;-76
2023/05/14 01:31:10;;;;;;;2.22;1.20;;;15.60;62.40;;;;;;2388609;53;21560;-78
2023/05/14 01:33:40;;;;;;;2.30;1.10;;;15.60;62.50;;;;;;2357254;54;21101;-76
2023/05/14 01:36:06;;;;;;;2.55;1.40;;;15.60;62.70;;;;;;2372809;53;20871;-76
2023/05/14 01:38:38;;;;;;;3.37;1.60;;;15.60;62.80;;;;;;2621891;52;20997;-77
2023/05/14 01:41:11;;;;;;;2.50;1.30;;;15.40;62.70;;;;;;2610997;52;20962;-78
2023/05/14 01:43:38;;;;;;;3.12;1.40;;;15.50;62.80;;;;;;2621891;52;20982;-76
2023/05/14 01:46:04;;;;;;;3.30;1.40;;;15.50;62.90;;;;;;2372994;53;21187;-79
2023/05/14 01:48:36;;;;;;;2.53;1.50;;;15.50;63.00;;;;;;2609919;53;21065;-77
2023/05/14 01:51:13;;;;;;;3.30;1.40;;;15.50;63.10;;;;;;2628729;52;20991;-79
2023/05/14 01:54:05;;;;;;;;;;;;;;;;;;;;;
2023/05/14 01:56:34;;;;;;;3.17;1.48;;;15.50;63.20;;;;;;2622103;52;22111;-78
2023/05/14 01:59:03;;;;;;;2.70;1.30;;;15.40;63.20;;;;;;2617213;52;20988;-77
2023/05/14 02:01:35;;;;;;;2.90;1.70;;;15.40;63.20;;;;;;2621607;52;20974;-79
2023/05/14 02:04:07;;;;;;;2.95;1.65;;;15.40;63.30;;;;;;2610239;52;20940;-77
2023/05/14 02:06:34;;;;;;;2.65;1.50;;;15.40;63.30;;;;;;2621633;52;21443;-79
2023/05/14 02:09:03;;;;;;;2.90;1.60;;;15.40;63.40;;;;;;2621356;52;20962;-79
2023/05/14 02:11:30;;;;;;;3.90;1.37;;;15.40;63.50;;;;;;2620076;52;21489;-77
2023/05/14 02:13:57;;;;;;;2.35;1.33;;;15.40;63.50;;;;;;2618580;52;21423;-77
2023/05/14 02:16:30;;;;;;;3.10;1.40;;;15.40;63.50;;;;;;2621788;52;20981;-76
2023/05/14 02:18:59;;;;;;;2.55;1.30;;;15.40;63.40;;;;;;2620987;52;21441;-79
2023/05/14 02:21:26;;;;;;;2.78;1.30;;;15.40;63.50;;;;;;2621868;52;20943;-76
2023/05/14 02:23:55;;;;;;;2.90;1.50;;;15.40;63.50;;;;;;2368778;53;21570;-76
2023/05/14 02:26:30;;;;;;;2.67;1.55;;;15.40;63.60;;;;;;2615694;52;21007;-77
2023/05/14 02:29:13;;;;;;;2.60;1.30;;;15.50;63.70;;;;;;2365341;54;20946;-75
2023/05/14 02:31:42;;;;;;;2.47;1.30;;;15.50;63.50;;;;;;2614016;52;20957;-77
2023/05/14 02:34:10;;;;;;;2.78;1.60;;;15.50;63.80;;;;;;2353884;54;20920;-76
2023/05/14 02:36:43;;;;;;;2.65;1.50;;;15.50;63.80;;;;;;2610277;52;20965;-78
2023/05/14 02:39:40;;;;;;;2.40;1.23;;;15.50;64.00;;;;;;2355116;55;21029;-78
2023/05/14 02:42:11;;;;;;;2.58;1.23;;;15.50;63.80;;;;;;2620886;52;20902;-77
2023/05/14 02:44:37;;;;;;;2.40;1.25;;;15.40;63.80;;;;;;2370735;53;20954;-75
2023/05/14 02:47:09;;;;;;;3.40;1.50;;;15.50;63.90;;;;;;2360394;53;21040;-77
2023/05/14 02:49:48;;;;;;;3.05;1.60;;;15.60;64.00;;;;;;2614526;52;20899;-76
2023/05/14 02:52:21;;;;;;;2.55;1.40;;;15.60;63.90;;;;;;2339338;54;21840;-79
2023/05/14 02:54:48;;;;;;;3.37;1.40;;;15.60;64.10;;;;;;2588967;52;20980;-77
2023/05/14 02:57:14;;;;;;;2.60;1.50;;;15.60;64.10;;;;;;2340550;53;21051;-74
2023/05/14 02:59:40;;;;;;;3.28;1.30;;;15.60;64.20;;;;;;2589501;52;20965;-77
2023/05/14 03:02:19;;;;;;;3.75;1.90;;;15.60;64.20;;;;;;2350385;53;20964;-77
2023/05/14 03:04:48;;;;;;;2.40;1.30;;;15.70;64.20;;;;;;2579314;53;20901;-76
2023/05/14 03:07:14;;;;;;;2.30;1.10;;;15.70;64.30;;;;;;2583585;52;20961;-77
2023/05/14 03:09:41;;;;;;;2.40;1.25;;;15.70;64.20;;;;;;2338227;53;21096;-76
2023/05/14 03:12:07;;;;;;;2.72;1.40;;;15.70;64.20;;;;;;2612823;52;20950;-77
2023/05/14 03:14:37;;;;;;;2.55;1.45;;;15.70;64.20;;;;;;2370854;53;20965;-76
2023/05/14 03:17:03;;;;;;;2.97;1.52;;;15.70;64.10;;;;;;2613893;52;21025;-76
2023/05/14 03:19:32;;;;;;;2.70;1.55;;;15.70;64.30;;;;;;2370339;53;20984;-76
2023/05/14 03:22:35;;;;;;;3.58;1.62;;;15.70;64.20;;;;;;2591337;52;21026;-77
2023/05/14 03:25:18;;;;;;;2.70;1.40;;;15.70;64.30;;;;;;2612133;52;20946;-75
2023/05/14 03:27:45;;;;;;;2.60;1.42;;;15.70;64.10;;;;;;2602598;52;21515;-76
2023/05/14 03:30:14;;;;;;;2.83;1.40;;;15.70;64.30;;;;;;2593301;52;21132;-76
2023/05/14 03:32:57;;;;;;;2.75;1.27;;;15.80;64.40;;;;;;2365083;53;20954;-76
2023/05/14 03:35:30;;;;;;;2.50;1.30;;;15.60;64.20;;;;;;2608130;52;20918;-77
2023/05/14 03:37:58;;;;;;;2.55;1.37;;;15.70;64.30;;;;;;2354677;53;20942;-77
2023/05/14 03:40:26;;;;;;;2.97;1.55;;;15.70;64.30;;;;;;2601911;52;20977;-77
2023/05/14 03:42:58;;;;;;;2.60;1.30;;;15.80;64.50;;;;;;2372655;53;20984;-78
2023/05/14 03:45:25;;;;;;;3.55;1.48;;;15.80;64.40;;;;;;2622544;52;20902;-78
2023/05/14 03:47:52;;;;;;;2.60;1.42;;;15.80;64.30;;;;;;2601392;52;20935;-78
2023/05/14 03:50:18;;;;;;;2.28;1.20;;;15.70;64.30;;;;;;2615348;52;20987;-79
2023/05/14 03:52:47;;;;;;;3.10;1.35;;;15.80;64.30;;;;;;2357975;53;20911;-78
2023/05/14 03:55:15;;;;;;;2.40;1.20;;;15.70;64.20;;;;;;2594645;52;20919;-77
2023/05/14 03:57:46;;;;;;;2.97;1.20;;;15.70;64.20;;;;;;2611021;52;21106;-76
2023/05/14 04:00:22;;;;;;;3.00;1.60;;;15.70;64.20;;;;;;2610565;52;21045;-76
2023/05/14 04:02:51;;;;;;;3.15;1.65;;;15.70;64.20;;;;;;2607688;52;20957;-77
2023/05/14 04:05:17;;;;;;;3.55;1.45;;;15.70;64.30;;;;;;2368359;53;20971;-76
2023/05/14 04:07:44;;;;;;;2.83;1.58;;;15.70;64.30;;;;;;2599821;52;20962;-76
2023/05/14 04:10:12;;;;;;;3.33;1.60;;;15.70;64.30;;;;;;2619185;52;20945;-78
2023/05/14 04:12:51;;;;;;;3.78;1.60;;;15.70;64.30;;;;;;2619258;52;21004;-77
2023/05/14 04:15:42;;;;;;;4.55;1.70;;;15.70;64.20;;;;;;2621601;52;20986;-78
2023/05/14 04:18:16;;;;;;;3.37;1.80;;;15.70;64.10;;;;;;2612201;52;21098;-76
2023/05/14 04:24:20;;;;;;;2.65;1.50;;;15.70;64.30;;;;;;2357102;53;20919;-76
2023/05/14 04:26:47;;;;;;;3.17;2.08;;;15.70;64.60;;;;;;2363442;53;20906;-76
2023/05/14 04:29:26;;;;;;;3.05;1.95;;;15.60;64.60;;;;;;2592723;52;20983;-77
2023/05/14 04:31:52;;;;;;;3.58;2.55;;;15.70;64.80;;;;;;2344686;53;20959;-76
2023/05/14 04:34:40;;;;;;;3.95;2.30;;;15.70;64.80;;;;;;2332419;53;21587;-76
2023/05/14 04:37:18;;;;;;;3.35;1.73;;;15.70;64.80;;;;;;2337617;53;21392;-76
2023/05/14 04:39:47;;;;;;;3.05;1.77;;;15.80;65.00;;;;;;2356350;53;20977;-77
2023/05/14 04:42:13;;;;;;;3.10;1.80;;;15.80;65.00;;;;;;2347110;53;20944;-76
2023/05/14 04:44:40;;;;;;;3.25;1.90;;;15.80;64.90;;;;;;2588137;52;20948;-77
2023/05/14 04:47:06;;;;;;;3.85;2.17;;;15.80;64.90;;;;;;2588720;52;20973;-76
2023/05/14 04:49:46;;;;;;;2.75;1.60;;;15.80;64.90;;;;;;2342622;53;20928;-76
2023/05/14 04:52:25;;;;;;;3.25;1.80;;;15.80;64.90;;;;;;2342622;53;20988;-76
2023/05/14 04:55:30;;;;;;;2.70;1.60;;;15.80;64.80;;;;;;2583274;52;20956;-76
2023/05/14 04:58:03;;;;;;;3.97;2.20;;;15.80;64.90;;;;;;2370430;53;21764;-76
2023/05/14 05:00:44;;;;;;;3.85;2.17;;;15.80;65.00;;;;;;2613614;52;21444;-75
2023/05/14 05:03:20;;;;;;;3.55;2.20;;;15.80;64.90;;;;;;2356415;53;21712;-76
2023/05/14 05:06:02;;;;;;;3.95;1.90;;;15.80;64.90;;;;;;2593653;52;20895;-77
2023/05/14 05:08:28;;;;;;;3.25;1.60;;;15.80;65.10;;;;;;2623038;52;20990;-76
2023/05/14 05:10:55;;;;;;;3.35;1.98;;;15.80;65.20;;;;;;2370210;53;20906;-77
2023/05/14 05:13:45;;;;;;;2.95;1.60;;;15.90;65.20;;;;;;2594954;52;21362;-76
2023/05/14 05:16:13;;;;;;;2.72;1.45;;;15.90;64.90;;;;;;2610368;52;20959;-77
2023/05/14 05:18:58;;;;;;;3.08;1.70;;;15.90;65.10;;;;;;2353447;53;20907;-77
2023/05/14 05:21:45;;;;;;;2.92;1.58;;;15.90;65.20;;;;;;2591479;52;21030;-77
2023/05/14 05:24:12;;;;;;;4.25;1.73;;;15.90;65.20;;;;;;2369902;53;21714;-76
2023/05/14 05:26:52;;;;;;;3.03;1.80;;;15.90;65.20;;;;;;2594337;52;20914;-76
2023/05/14 05:29:23;;;;;;;3.40;1.80;;;15.90;65.10;;;;;;2587671;52;20969;-77
2023/05/14 05:31:51;;;;;;;2.97;1.60;;;15.90;65.20;;;;;;2342308;53;20988;-78
2023/05/14 05:34:21;;;;;;;2.97;1.75;;;15.90;65.10;;;;;;2588225;52;20972;-76
2023/05/14 05:36:48;;;;;;;2.83;1.80;;;15.90;65.20;;;;;;2348376;53;20968;-76
2023/05/14 05:39:20;;;;;;;3.33;1.92;;;16.00;65.40;;;;;;2589702;53;21013;-79
2023/05/14 05:41:48;;;;;;;3.65;2.12;;;16.00;65.30;;;;;;2593657;52;21049;-77
2023/05/14 05:44:43;;;;;;;4.15;1.90;;;16.00;65.40;;;;;;2589319;52;20919;-77
2023/05/14 05:47:10;;;;;;;3.12;1.80;;;16.00;65.30;;;;;;2598437;52;20981;-75
2023/05/14 05:49:39;;;;;;;3.53;2.12;;;16.10;65.60;;;;;;2369141;53;21022;-79
2023/05/14 05:52:12;;;;;;;3.80;2.12;;;16.10;65.60;;;;;;2613702;52;21925;-77
2023/05/14 05:54:40;;;;;;;3.55;1.73;;;16.00;65.40;;;;;;2610884;52;21076;-78
2023/05/14 05:57:50;;;;;;;3.65;1.87;;;16.00;65.60;;;;;;2368794;53;20978;-76
2023/05/14 06:00:19;;;;;;;3.45;1.85;;;16.10;65.40;;;;;;2621850;52;20902;-77
2023/05/14 06:02:45;;;;;;;3.62;2.03;;;16.20;65.70;;;;;;2620439;52;21451;-75
2023/05/14 06:05:12;;;;;;;4.18;2.22;;;16.20;65.60;;;;;;2612668;52;20982;-78
2023/05/14 06:07:40;;;;;;;3.25;1.92;;;16.20;65.50;;;;;;2370650;53;20910;-79
2023/05/14 06:10:09;;;;;;;4.22;2.00;;;16.20;65.50;;;;;;2620965;52;20962;-76
2023/05/14 06:12:41;;;;;;;3.10;1.90;;;16.20;65.50;;;;;;2601274;53;20966;-76
2023/05/14 06:15:08;;;;;;;3.67;1.90;;;16.20;65.40;;;;;;2618505;52;21284;-78
2023/05/14 06:17:34;;;;;;;4.00;2.00;;;16.20;65.40;;;;;;2623295;52;21397;-77
2023/05/14 06:20:06;;;;;;;3.25;1.90;;;16.20;65.40;;;;;;2621848;52;20974;-76
2023/05/14 06:22:38;;;;;;;4.47;1.70;;;16.30;65.40;;;;;;2612969;52;20906;-78
2023/05/14 06:25:08;;;;;;;3.40;2.08;;;16.30;65.40;;;;;;2610620;52;20950;-78
2023/05/14 06:27:39;;;;;;;2.90;1.52;;;16.30;65.40;;;;;;2370710;53;21057;-76
2023/05/14 06:30:08;;;;;;;3.15;1.70;;;16.30;65.50;;;;;;2606747;52;21109;-78
2023/05/14 06:34:05;;;;;;;2.95;1.85;;;16.30;65.60;;;;;;2593520;53;21515;-76
2023/05/14 06:36:42;;;;;;;3.15;1.75;;;16.30;65.60;;;;;;2371326;53;20968;-76
2023/05/14 06:39:09;;;;;;;4.25;2.08;;;16.30;65.60;;;;;;2363656;53;20981;-75
2023/05/14 06:41:35;;;;;;;3.35;2.00;;;16.40;65.60;;;;;;2622650;52;20914;-77
2023/05/14 06:44:03;;;;;;;3.87;2.10;;;16.40;65.70;;;;;;2621033;52;21301;-77
2023/05/14 06:46:35;;;;;;;3.28;2.05;;;16.40;65.70;;;;;;2612368;52;20905;-76
2023/05/14 06:49:05;;;;;;;4.20;2.30;;;16.40;65.80;;;;;;2365767;53;20917;-77
2023/05/14 06:51:32;;;;;;;3.50;2.00;;;16.40;65.90;;;;;;2362782;53;20937;-77
2023/05/14 06:54:06;;;;;;;3.85;2.53;;;16.50;66.00;;;;;;2369857;53;20934;-77
2023/05/14 06:56:40;;;;;;;4.18;2.60;;;16.50;66.10;;;;;;2369962;53;21014;-77
2023/05/14 06:59:12;;;;;;;5.32;2.75;;;16.60;66.00;;;;;;2613157;52;20913;-79
2023/05/14 07:01:42;;;;;;;3.70;2.45;;;16.60;66.20;;;;;;2621846;52;20950;-78
2023/05/14 07:04:08;;;;;;;4.15;2.62;;;16.60;66.10;;;;;;2622957;52;20981;-79
2023/05/14 07:06:58;;;;;;;4.50;2.75;;;16.60;65.90;;;;;;2362416;53;21005;-75
2023/05/14 07:09:51;;;;;;;5.78;3.08;;;16.60;66.00;;;;;;2366750;53;20970;-76
2023/05/14 07:12:30;;;;;;;3.90;2.87;;;16.70;66.40;;;;;;2371995;53;20910;-77
2023/05/14 07:14:59;;;;;;;4.12;3.00;;;16.70;66.50;;;;;;2369038;53;21331;-78
2023/05/14 07:17:27;;;;;;;4.40;2.92;;;16.80;66.70;;;;;;2369273;53;20966;-76
2023/05/14 07:19:59;;;;;;;5.32;3.47;;;16.80;66.60;;;;;;2616755;52;20960;-78
2023/05/14 07:22:31;;;;;;;4.35;3.20;;;16.90;66.80;;;;;;2364749;53;21037;-77
2023/05/14 07:25:02;;;;;;;5.93;3.35;;;16.90;66.80;;;;;;2621921;52;20970;-76
2023/05/14 07:27:34;;;;;;;6.43;4.53;;;17.10;67.10;;;;;;2608586;52;21018;-77
2023/05/14 07:30:20;;;;;;;5.70;4.12;;;17.20;67.60;;;;;;2576068;52;20969;-78
2023/05/14 07:32:50;;;;;;;4.80;3.53;;;17.20;67.70;;;;;;2582670;52;20998;-77
2023/05/14 07:35:31;;;;;;;5.10;3.75;;;17.40;67.90;;;;;;2620128;52;20941;-76
2023/05/14 07:37:58;;;;;;;5.62;3.60;;;17.50;68.40;;;;;;2614821;52;21037;-78
2023/05/14 07:44:03;;;;;;;4.55;3.35;;;17.70;68.10;;;;;;2617087;52;22536;-79
2023/05/14 07:46:39;;;;;;;5.30;3.35;;;17.80;67.60;;;;;;2371227;53;20954;-78
2023/05/14 07:49:09;;;;;;;5.05;3.28;;;17.90;67.80;;;;;;2622255;52;20946;-74
2023/05/14 07:51:35;;;;;;;5.30;3.67;;;18.10;67.70;;;;;;2370151;53;20953;-74
2023/05/14 07:54:01;;;;;;;4.50;3.37;;;18.10;67.40;;;;;;2618990;52;20949;-78
2023/05/14 07:56:29;;;;;;;5.37;3.70;;;18.20;67.30;;;;;;2363532;53;20926;-78
2023/05/14 07:58:58;;;;;;;4.90;3.60;;;18.30;67.30;;;;;;2612424;52;21541;-78
2023/05/14 08:01:25;;;;;;;5.12;3.60;;;18.30;67.20;;;;;;2371957;53;21056;-79
2023/05/14 08:03:52;;;;;;;4.75;3.67;;;18.40;67.30;;;;;;2365435;53;20926;-79
2023/05/14 08:06:20;;;;;;;5.95;3.67;;;18.50;67.40;;;;;;2611816;52;21723;-80
2023/05/14 08:08:47;;;;;;;4.20;3.15;;;18.50;67.10;;;;;;2610514;52;21649;-75
2023/05/14 08:11:24;;;;;;;4.57;3.30;;;18.60;67.00;;;;;;2370633;53;20934;-77
2023/05/14 08:13:52;;;;;;;4.75;3.37;;;18.70;67.10;;;;;;2622573;52;20911;-76
2023/05/14 08:16:18;;;;;;;4.90;3.60;;;18.70;66.90;;;;;;2619738;52;21381;-80
2023/05/14 08:18:45;;;;;;;5.10;3.60;;;18.80;67.10;;;;;;2617359;52;20935;-76
2023/05/14 08:21:13;;;;;;;4.78;3.42;;;18.80;67.30;;;;;;2609703;52;20968;-79
2023/05/14 08:23:39;;;;;;;4.37;3.30;;;18.90;67.30;;;;;;2620264;52;20926;-78
2023/05/14 08:26:07;;;;;;;5.00;3.60;;;19.00;67.20;;;;;;2622782;52;20961;-81
2023/05/14 08:28:37;;;;;;;5.80;3.30;;;19.00;67.00;;;;;;2612912;52;20899;-79
2023/05/14 08:31:08;;;;;;;5.15;3.22;;;19.10;66.80;;;;;;2623074;52;20942;-77
2023/05/14 08:33:36;;;;;;;4.35;3.05;;;19.20;67.00;;;;;;2622787;52;20899;-76
2023/05/14 08:36:02;;;;;;;4.72;3.30;;;19.30;67.00;;;;;;2370878;53;21022;-80
2023/05/14 08:38:35;;;;;;;4.30;2.75;;;19.30;67.50;;;;;;2371236;53;20898;-78
2023/05/14 08:41:02;;;;;;;5.75;3.60;;;19.40;66.80;;;;;;2609260;52;22845;-81
2023/05/14 08:46:06;;;;;;;5.68;3.60;;;19.40;66.50;;;;;;2606632;52;20922;-79
2023/05/14 08:48:36;;;;;;;3.90;2.67;;;19.60;66.20;;;;;;2596388;52;21075;-77
2023/05/14 08:51:08;;;;;;;4.20;2.80;;;19.60;66.40;;;;;;2353270;53;21927;-79
2023/05/14 08:53:40;;;;;;;4.40;2.78;;;19.60;66.10;;;;;;2587086;52;20936;-77
2023/05/14 08:56:20;;;;;;;5.12;3.60;;;19.70;66.10;;;;;;2517882;52;20970;-77
2023/05/14 08:58:47;;;;;;;3.95;2.80;;;19.80;66.40;;;;;;2264885;56;21497;-78
2023/05/14 09:01:19;;;;;;;4.87;3.35;;;19.80;66.50;;;;;;2513214;53;20995;-78
2023/05/14 09:04:00;;;;;;;5.15;3.60;;;19.90;66.80;;;;;;2298127;54;21065;-78
2023/05/14 09:06:37;;;;;;;4.22;2.83;;;19.90;66.20;;;;;;2501268;54;21485;-76
2023/05/14 09:09:05;;;;;;;4.82;3.20;;;20.10;66.50;;;;;;2274047;55;21148;-76
2023/05/14 09:11:34;;;;;;;4.62;3.05;;;20.10;66.60;;;;;;2278713;54;21021;-76
2023/05/14 09:14:05;;;;;;;4.20;2.92;;;20.20;66.70;;;;;;2268631;56;20930;-78
2023/05/14 09:17:02;;;;;;;4.20;2.60;;;20.30;66.70;;;;;;2523423;54;20934;-76
2023/05/14 09:19:46;;;;;;;3.33;1.95;;;20.40;66.10;;;;;;2537102;54;21547;-79
2023/05/14 09:22:30;;;;;;;3.97;2.58;;;20.40;66.40;;;;;;2537522;54;20966;-77
2023/05/14 09:25:10;;;;;;;3.67;2.40;;;20.60;66.10;;;;;;2287805;54;21014;-81
2023/05/14 09:27:42;;;;;;;3.85;2.33;;;20.60;65.80;;;;;;2526997;54;20948;-77
2023/05/14 09:30:12;;;;;;;3.60;2.45;;;20.70;66.00;;;;;;2537507;54;21912;-78
2023/05/14 09:32:51;;;;;;;3.85;2.45;;;20.80;66.10;;;;;;2518030;54;20990;-77
2023/05/14 09:35:42;;;;;;;4.50;2.35;;;20.90;66.00;;;;;;2284664;55;20965;-77
2023/05/14 09:38:11;;;;;;;3.05;1.87;;;21.00;66.40;;;;;;2517368;54;20953;-78
2023/05/14 09:40:38;;;;;;;3.55;2.03;;;21.10;66.60;;;;;;2538285;54;20991;-83
2023/05/14 09:43:10;;;;;;;3.03;1.77;;;21.20;66.50;;;;;;2292674;54;21041;-77
2023/05/14 09:45:41;;;;;;;3.58;2.10;;;21.30;66.00;;;;;;2526944;54;21123;-76
2023/05/14 09:48:10;;;;;;;3.05;1.73;;;21.40;65.90;;;;;;2530276;54;20959;-77
2023/05/14 09:50:45;;;;;;;3.40;1.77;;;21.50;65.70;;;;;;2534798;54;21506;-76
2023/05/14 09:53:12;;;;;;;3.40;1.80;;;21.60;65.40;;;;;;2307622;54;20946;-77
2023/05/14 09:55:51;;;;;;;3.15;1.98;;;21.70;66.10;;;;;;2295057;54;20952;-77
2023/05/14 09:58:19;;;;;;;3.90;1.62;;;21.80;65.40;;;;;;2534883;54;20979;-77
2023/05/14 10:00:46;;;;;;;3.10;1.60;;;21.90;65.80;;;;;;2295791;54;20926;-77
2023/05/14 10:03:30;;;;;;;2.87;1.50;;;22.00;65.40;;;;;;2536504;54;20900;-78
2023/05/14 10:06:00;;;;;;;2.70;1.40;;;22.10;65.00;;;;;;2293377;54;21415;-77
2023/05/14 10:08:35;;;;;;;3.30;2.20;;;22.20;64.80;;;;;;2522298;54;20949;-75
2023/05/14 10:11:05;;;;;;;3.37;2.08;;;22.30;64.10;;;;;;2288933;55;21030;-77
2023/05/14 10:13:38;;;;;;;3.75;2.10;;;22.40;64.30;;;;;;2543933;54;21950;-78
2023/05/14 10:16:13;;;;;;;2.72;1.70;;;22.40;64.30;;;;;;2298902;55;21027;-79
2023/05/14 10:18:45;;;;;;;4.50;2.12;;;22.50;64.20;;;;;;2297175;54;20963;-77
2023/05/14 10:21:18;;;;;;;3.00;1.80;;;22.60;64.40;;;;;;2542019;54;21571;-76
2023/05/14 10:23:45;;;;;;;3.97;2.05;;;22.60;64.00;;;;;;2523177;54;21817;-75
2023/05/14 10:26:12;;;;;;;3.47;2.03;;;22.70;63.90;;;;;;2288009;54;21582;-75
2023/05/14 10:28:39;;;;;;;3.40;2.30;;;22.70;63.40;;;;;;2522826;54;20965;-75
2023/05/14 10:31:08;;;;;;;3.75;2.47;;;22.80;63.40;;;;;;2287732;55;20986;-74
2023/05/14 10:33:49;;;;;;;3.70;2.35;;;22.80;62.90;;;;;;2288842;54;21482;-77
2023/05/14 10:36:16;;;;;;;3.37;1.98;;;22.90;62.40;;;;;;2522194;54;20934;-77
2023/05/14 10:38:42;;;;;;;4.00;2.00;;;22.90;62.80;;;;;;2289058;55;20982;-78
2023/05/14 10:41:24;;;;;;;3.17;2.10;;;22.90;62.30;;;;;;2288349;55;21030;-75
2023/05/14 10:43:59;;;;;;;2.87;1.77;;;22.90;60.90;;;;;;2310654;54;20931;-75
2023/05/14 10:46:30;;;;;;;2.78;1.75;;;22.90;61.60;;;;;;2287197;54;21612;-75
2023/05/14 10:48:57;;;;;;;2.70;1.58;;;22.90;61.50;;;;;;2528826;54;21024;-75
2023/05/14 10:51:25;;;;;;;3.30;2.00;;;22.90;61.40;;;;;;2535222;54;20954;-76
2023/05/14 10:54:10;;;;;;;4.37;2.60;;;22.90;61.40;;;;;;2309468;54;21011;-75
2023/05/14 10:56:57;;;;;;;3.37;1.87;;;22.90;60.70;;;;;;2288420;55;20986;-75
2023/05/14 10:59:28;;;;;;;3.42;1.73;;;23.00;61.70;;;;;;2286080;54;21371;-77
2023/05/14 11:02:11;;;;;;;2.62;1.55;;;23.00;61.40;;;;;;2520932;54;20990;-75
2023/05/14 11:04:40;;;;;;;3.35;1.80;;;23.00;60.90;;;;;;2478117;55;20974;-76
2023/05/14 11:07:24;;;;;;;3.33;1.98;;;23.00;61.10;;;;;;2272550;55;21295;-75
2023/05/14 11:09:52;;;;;;;4.97;1.60;;;23.10;60.50;;;;;;2486254;55;20976;-75
2023/05/14 11:12:44;;;;;;;3.10;1.75;;;22.90;60.80;;;;;;2272752;55;20970;-75
2023/05/14 11:15:19;;;;;;;2.25;1.20;;;23.00;60.70;;;;;;2269404;55;21061;-72
2023/05/14 11:18:02;;;;;;;3.12;1.87;;;23.00;60.40;;;;;;2287837;56;20947;-74
2023/05/14 11:20:39;;;;;;;2.97;1.60;;;22.90;60.60;;;;;;2511321;55;21445;-74
2023/05/14 11:23:07;;;;;;;3.25;1.62;;;22.90;60.60;;;;;;2281259;55;21095;-74
2023/05/14 11:25:42;;;;;;;2.62;1.50;;;23.00;60.50;;;;;;2281808;55;21764;-73
2023/05/14 11:28:24;;;;;;;;;;;;;;;;;;;;;
2023/05/14 11:31:16;;;;;;;3.12;1.70;;;22.90;59.70;;;;;;2518097;54;20958;-75
2023/05/14 11:33:45;;;;;;;3.50;1.58;;;23.00;59.80;;;;;;2506836;55;21000;-75
2023/05/14 11:36:31;;;;;;;2.90;1.70;;;22.90;60.30;;;;;;2495267;54;20964;-75
2023/05/14 11:39:17;;;;;;;2.83;1.75;;;23.00;59.40;;;;;;2278929;55;21536;-72
2023/05/14 11:42:04;;;;;;;2.80;1.67;;;23.00;59.60;;;;;;2284499;56;20958;-76
2023/05/14 11:44:51;;;;;;;2.70;1.48;;;23.00;59.60;;;;;;2510011;54;21004;-74
2023/05/14 11:47:19;;;;;;;2.80;1.77;;;23.00;60.30;;;;;;2510177;54;21332;-76
2023/05/14 11:49:46;;;;;;;3.25;1.80;;;23.00;59.70;;;;;;2286347;56;20970;-75
2023/05/14 11:52:20;;;;;;;3.15;1.40;;;23.00;59.50;;;;;;2518586;54;21679;-74
2023/05/14 11:55:09;;;;;;;2.95;1.23;;;23.00;59.50;;;;;;2291112;56;21813;-75
2023/05/14 11:57:36;;;;;;;2.03;1.20;;;23.10;58.90;;;;;;2287288;56;21001;-73
2023/05/14 12:00:20;;;;;;;2.62;1.33;;;23.10;59.40;;;;;;2520043;54;21499;-73
2023/05/14 12:02:59;;;;;;;2.80;1.70;;;23.00;58.90;;;;;;2520764;54;20997;-72
2023/05/14 12:05:31;;;;;;;;;;;23.10;58.90;;;;;;2523256;54;21014;-73
2023/05/14 12:07:57;;;;;;;2.60;1.40;;;23.10;58.60;;;;;;2275530;56;20141;-72
2023/05/14 12:10:24;;;;;;;2.53;1.33;;;23.10;58.90;;;;;;2506407;54;21602;-73
2023/05/14 12:12:50;;;;;;;3.85;1.70;;;23.00;58.60;;;;;;2515277;54;20961;-72
2023/05/14 12:15:17;;;;;;;3.15;1.50;;;23.00;58.60;;;;;;2519082;54;21548;-74
2023/05/14 12:17:49;;;;;;;2.70;1.48;;;23.00;58.70;;;;;;2286844;55;21215;-74
2023/05/14 12:20:17;;;;;;;2.25;1.30;;;23.00;58.50;;;;;;2286613;55;20954;-74
2023/05/14 12:22:45;;;;;;;2.87;1.50;;;23.00;59.10;;;;;;2520088;54;20910;-73
2023/05/14 12:25:12;;;;;;;2.60;1.50;;;23.00;59.40;;;;;;2519724;54;20946;-71
2023/05/14 12:27:38;;;;;;;2.60;1.40;;;23.10;59.60;;;;;;2285877;56;20929;-76
2023/05/14 12:30:05;;;;;;;2.92;1.73;;;23.20;59.90;;;;;;2520147;54;21499;-76
2023/05/14 12:32:52;;;;;;;3.55;1.77;;;23.30;59.70;;;;;;2291498;56;21950;-77
2023/05/14 12:35:20;;;;;;;2.80;1.48;;;23.40;58.90;;;;;;2518349;54;21010;-75
2023/05/14 12:37:46;;;;;;;2.50;1.35;;;23.50;59.50;;;;;;2285810;55;21796;-73
2023/05/14 12:40:21;;;;;;;3.00;1.50;;;23.50;59.40;;;;;;2519336;54;21932;-75
2023/05/14 12:42:49;;;;;;;2.40;1.48;;;23.60;59.30;;;;;;2285016;56;20989;-74
2023/05/14 12:45:18;;;;;;;3.55;1.67;;;23.70;59.60;;;;;;2284262;56;21014;-74
2023/05/14 12:47:47;;;;;;;2.37;1.27;;;23.80;58.70;;;;;;2280962;56;20998;-75
2023/05/14 12:50:15;;;;;;;2.17;1.10;;;23.80;57.90;;;;;;2517282;54;20970;-76
2023/05/14 12:52:43;;;;;;;2.78;1.50;;;23.80;57.90;;;;;;2512521;55;21450;-75
2023/05/14 12:55:13;;;;;;;3.85;1.55;;;23.80;57.70;;;;;;2517158;54;20946;-72
2023/05/14 12:57:40;;;;;;;2.85;1.60;;;23.90;57.50;;;;;;2517750;54;20922;-73
2023/05/14 13:00:12;;;;;;;2.53;1.33;;;23.80;57.20;;;;;;2518357;54;21351;-72
2023/05/14 13:02:39;;;;;;;2.85;1.27;;;23.80;56.90;;;;;;2518600;54;21585;-73
2023/05/14 13:05:07;;;;;;;2.40;1.25;;;23.80;56.90;;;;;;2517796;54;20998;-72
2023/05/14 13:07:34;;;;;;;3.65;1.40;;;23.80;56.80;;;;;;2517133;54;20942;-71
2023/05/14 13:10:04;;;;;;;2.42;1.23;;;23.70;56.80;;;;;;2517588;54;20922;-72
2023/05/14 13:12:31;;;;;;;2.53;1.10;;;23.70;56.80;;;;;;2517905;54;20918;-73
2023/05/14 13:14:57;;;;;;;2.00;0.98;;;23.70;56.70;;;;;;2285855;56;20941;-73
2023/05/14 13:17:23;;;;;;;2.37;1.25;;;23.70;56.60;;;;;;2286190;56;21033;-70
2023/05/14 13:19:50;;;;;;;2.53;1.20;;;23.60;56.90;;;;;;2520382;54;21054;-73
2023/05/14 13:22:17;;;;;;;2.17;1.10;;;23.60;56.50;;;;;;2284318;56;20995;-75
2023/05/14 13:24:46;;;;;;;2.30;1.20;;;23.60;56.30;;;;;;2285933;56;20957;-72
2023/05/14 13:27:13;;;;;;;2.35;1.20;;;23.60;56.30;;;;;;2519725;54;21823;-72
2023/05/14 13:29:39;;;;;;;3.00;1.25;;;23.70;56.50;;;;;;2285514;56;21632;-73
2023/05/14 13:32:06;;;;;;;2.15;0.98;;;23.70;56.40;;;;;;2519747;54;20929;-71
2023/05/14 13:34:32;;;;;;;2.60;1.12;;;23.70;56.60;;;;;;2519639;54;21494;-73